Terminal Aerodrome Forecast
Issued by NWS

Home | Current Version | Previous Version | Text Only | Print | Product List | Glossary On
Versions: 1 2 3 4 5 6 7 8 9 10 11 12 13 14 15 16 17 18 19 20 21 22 23 24 25 26 27 28 29 30 31 32 33 34 35 36 37 38 39 40 41 42 43 44 45 46 47 48 49 50
546
FTUS45 KBOU 202340
TAFAPA
TAF
KAPA 202340Z 2100/2124 36008KT P6SM BKN110 BKN140
     FM210200 05010KT P6SM SCT100 BKN130
     FM210800 36006KT P6SM SCT090 BKN200
     FM211300 33007KT P6SM FEW012 FEW090 BKN200
     FM211700 06010KT P6SM FEW090 BKN120
     FM212100 08015KT P6SM SCT090 BKN120=

USA.gov is the U.S. government's official web portal to all federal, state and local government web resources and services.